createdAt,value
2023-01-29T00:02:22.726Z,14.17
2023-01-29T00:05:28.186Z,14.80
2023-01-29T00:08:31.106Z,15.00
2023-01-29T00:11:33.909Z,14.27
2023-01-29T00:14:37.846Z,15.60
2023-01-29T00:17:40.456Z,15.83
2023-01-29T00:20:44.480Z,15.77
2023-01-29T00:23:47.352Z,16.00
2023-01-29T00:26:50.010Z,15.77
2023-01-29T00:30:07.912Z,17.20
2023-01-29T00:33:11.813Z,17.87
2023-01-29T00:36:16.153Z,17.87
2023-01-29T00:39:31.355Z,16.03
2023-01-29T00:42:53.712Z,17.00
2023-01-29T00:45:57.647Z,17.17
2023-01-29T00:49:00.977Z,16.80
2023-01-29T00:52:21.094Z,16.83
2023-01-29T00:55:23.838Z,16.37
2023-01-29T00:58:34.463Z,17.23
2023-01-29T01:01:56.129Z,16.97
2023-01-29T01:04:58.819Z,17.43
2023-01-29T01:08:01.393Z,18.37
2023-01-29T01:11:05.650Z,17.67
2023-01-29T01:14:08.266Z,17.47
2023-01-29T01:17:12.221Z,17.50
2023-01-29T01:20:15.298Z,16.50
2023-01-29T01:23:19.542Z,17.03
2023-01-29T01:26:22.314Z,17.97
2023-01-29T01:29:24.985Z,15.80
2023-01-29T01:32:28.929Z,16.53
2023-01-29T01:35:31.672Z,16.23
2023-01-29T01:38:34.248Z,16.20
2023-01-29T01:41:36.933Z,14.97
2023-01-29T01:44:54.889Z,14.33
2023-01-29T01:48:03.492Z,14.10
2023-01-29T01:51:06.959Z,14.07
2023-01-29T01:54:13.957Z,13.43
2023-01-29T01:57:25.204Z,11.93
2023-01-29T02:00:28.067Z,13.50
2023-01-29T02:03:51.883Z,12.87
2023-01-29T02:07:14.159Z,13.40
2023-01-29T02:10:18.287Z,12.70
2023-01-29T02:13:21.277Z,13.13
2023-01-29T02:16:24.787Z,13.00
2023-01-29T02:19:40.240Z,12.30
2023-01-29T02:23:15.372Z,15.40
2023-01-29T02:26:35.297Z,12.87
2023-01-29T02:29:53.608Z,14.30
2023-01-29T02:33:01.829Z,12.40
2023-01-29T02:36:15.249Z,12.40
2023-01-29T02:39:29.338Z,11.83
2023-01-29T02:42:37.421Z,13.40
2023-01-29T02:45:47.703Z,12.63
2023-01-29T02:48:56.764Z,12.70
2023-01-29T02:52:04.213Z,12.70
2023-01-29T02:55:13.550Z,13.93
2023-01-29T02:58:21.853Z,12.23
2023-01-29T03:01:31.636Z,12.27
2023-01-29T03:04:42.512Z,12.60
2023-01-29T03:07:52.031Z,11.50
2023-01-29T03:11:00.195Z,12.50
2023-01-29T03:14:07.393Z,11.87
2023-01-29T03:17:11.738Z,12.00
2023-01-29T03:20:19.744Z,12.33
2023-01-29T03:23:27.140Z,11.30
2023-01-29T03:26:47.423Z,11.70
2023-01-29T03:30:11.896Z,12.50
2023-01-29T03:33:18.814Z,13.23
2023-01-29T03:36:28.904Z,12.03
2023-01-29T03:39:31.643Z,13.30
2023-01-29T03:42:50.720Z,13.07
2023-01-29T03:46:01.255Z,12.57
2023-01-29T03:49:12.468Z,14.83
2023-01-29T03:52:20.356Z,13.77
2023-01-29T03:55:31.105Z,13.67
2023-01-29T03:58:40.975Z,12.43
2023-01-29T04:01:48.610Z,12.53
2023-01-29T04:04:55.887Z,12.47
2023-01-29T04:08:04.244Z,13.03
2023-01-29T04:11:13.515Z,11.30
2023-01-29T04:14:16.691Z,12.03
2023-01-29T04:17:23.770Z,11.80
2023-01-29T04:20:27.923Z,11.40
2023-01-29T04:23:30.503Z,11.23
2023-01-29T04:26:50.477Z,10.40
2023-01-29T04:30:03.744Z,10.97
2023-01-29T04:33:13.293Z,10.27
2023-01-29T04:36:29.463Z,9.40
2023-01-29T04:39:41.318Z,10.07
2023-01-29T04:42:51.115Z,10.30
2023-01-29T04:46:07.818Z,9.37
2023-01-29T04:49:19.634Z,9.53
2023-01-29T04:52:32.976Z,9.73
2023-01-29T04:55:42.341Z,8.80
2023-01-29T04:58:49.835Z,9.57
2023-01-29T05:01:53.163Z,9.03
2023-01-29T05:04:58.445Z,10.23
2023-01-29T05:08:03.785Z,10.80
2023-01-29T05:11:06.998Z,9.30
2023-01-29T05:14:14.696Z,10.47
2023-01-29T05:17:21.045Z,10.60
2023-01-29T05:20:23.878Z,9.90
2023-01-29T05:23:27.894Z,10.27
2023-01-29T05:26:48.227Z,10.33
2023-01-29T05:29:50.822Z,10.37
2023-01-29T05:32:53.570Z,10.60
2023-01-29T05:35:56.855Z,10.23
2023-01-29T05:39:00.773Z,10.90
2023-01-29T05:42:03.565Z,10.27
2023-01-29T05:45:07.221Z,10.83
2023-01-29T05:48:09.841Z,10.63
2023-01-29T05:51:12.455Z,10.37
2023-01-29T05:54:16.573Z,11.37
2023-01-29T05:57:19.254Z,10.83
2023-01-29T06:00:22.411Z,10.80
2023-01-29T06:03:24.998Z,10.93
2023-01-29T06:06:27.602Z,11.37
2023-01-29T06:09:31.687Z,11.37
2023-01-29T06:12:34.331Z,11.97
2023-01-29T06:15:36.911Z,11.50
2023-01-29T06:18:40.172Z,12.47
2023-01-29T06:21:42.756Z,12.80
2023-01-29T06:24:46.707Z,14.23
2023-01-29T06:27:51.666Z,14.47
2023-01-29T06:30:54.330Z,14.17
2023-01-29T06:33:56.935Z,14.43
2023-01-29T06:36:59.536Z,14.03
2023-01-29T06:40:03.557Z,14.93
2023-01-29T06:43:06.159Z,15.77
2023-01-29T06:46:09.401Z,15.40
2023-01-29T06:49:12.063Z,18.30
2023-01-29T06:52:14.637Z,16.33
2023-01-29T06:55:18.609Z,16.37
2023-01-29T06:58:21.959Z,25.20
2023-01-29T07:01:35.581Z,14.53
2023-01-29T07:04:39.187Z,15.67
2023-01-29T07:07:41.824Z,16.50
2023-01-29T07:10:45.848Z,15.93
2023-01-29T07:13:48.435Z,14.77
2023-01-29T07:16:51.042Z,15.10
2023-01-29T07:19:53.617Z,16.17
2023-01-29T07:22:58.048Z,15.47
2023-01-29T07:26:04.091Z,16.07
2023-01-29T07:29:06.697Z,16.50
2023-01-29T07:32:09.440Z,15.80
2023-01-29T07:35:12.141Z,16.17
2023-01-29T07:38:14.755Z,14.87
2023-01-29T07:41:18.744Z,16.07
2023-01-29T07:44:21.305Z,16.97
2023-01-29T07:47:23.883Z,15.63
2023-01-29T07:50:28.165Z,16.70
2023-01-29T07:53:31.733Z,16.73
2023-01-29T07:56:35.671Z,16.13
2023-01-29T07:59:38.247Z,17.00
2023-01-29T08:02:40.986Z,17.83
2023-01-29T08:05:44.042Z,16.73
2023-01-29T08:08:46.717Z,16.87
2023-01-29T08:11:50.646Z,16.17
2023-01-29T08:14:53.250Z,17.30
2023-01-29T08:17:58.025Z,17.37
2023-01-29T08:21:01.853Z,17.40
2023-01-29T08:24:04.892Z,17.47
2023-01-29T08:27:08.883Z,17.47
2023-01-29T08:30:12.917Z,17.57
2023-01-29T08:33:17.566Z,19.07
2023-01-29T08:36:20.315Z,17.97
2023-01-29T08:39:22.909Z,19.57
2023-01-29T08:42:26.979Z,19.70
2023-01-29T08:45:30.060Z,18.70
2023-01-29T08:48:33.223Z,19.90
2023-01-29T08:51:35.791Z,20.07
2023-01-29T08:54:38.403Z,21.30
2023-01-29T08:57:42.340Z,22.37
2023-01-29T09:00:45.049Z,21.87
2023-01-29T09:03:47.625Z,23.80
2023-01-29T09:06:50.226Z,23.97
2023-01-29T09:09:52.817Z,23.13
2023-01-29T09:12:56.794Z,24.63
2023-01-29T09:16:01.085Z,24.97
2023-01-29T09:19:03.653Z,24.00
2023-01-29T09:22:06.310Z,28.73
2023-01-29T09:25:10.761Z,25.53
2023-01-29T09:28:14.727Z,24.83
2023-01-29T09:31:17.564Z,25.77
2023-01-29T09:34:20.312Z,26.50
2023-01-29T09:37:23.912Z,26.03
2023-01-29T09:40:28.039Z,29.03
2023-01-29T09:43:43.885Z,27.30
2023-01-29T09:46:51.334Z,27.93
2023-01-29T09:49:58.788Z,27.57
2023-01-29T09:53:09.690Z,28.17
2023-01-29T09:56:15.004Z,29.10
2023-01-29T09:59:22.333Z,29.83
2023-01-29T10:02:44.002Z,27.97
2023-01-29T10:06:00.217Z,29.80
2023-01-29T10:09:36.107Z,30.57
2023-01-29T10:12:54.536Z,28.97
2023-01-29T10:16:13.799Z,32.93
2023-01-29T10:19:36.324Z,29.53
2023-01-29T10:22:51.779Z,29.83
2023-01-29T10:25:55.406Z,30.47
2023-01-29T10:29:00.122Z,29.33
2023-01-29T10:32:05.914Z,32.13
2023-01-29T10:35:21.416Z,28.77
2023-01-29T10:38:36.173Z,31.00
2023-01-29T10:41:57.222Z,32.97
2023-01-29T10:45:19.575Z,28.40
2023-01-29T10:48:45.615Z,28.93
2023-01-29T10:52:03.264Z,28.43
2023-01-29T10:55:21.807Z,28.77
2023-01-29T10:58:32.664Z,27.83
2023-01-29T11:01:35.338Z,28.90
2023-01-29T11:04:39.699Z,28.53
2023-01-29T11:07:42.402Z,26.93
2023-01-29T11:10:55.291Z,28.27
2023-01-29T11:14:01.200Z,27.87
2023-01-29T11:17:03.862Z,27.13
2023-01-29T11:20:27.529Z,28.87
2023-01-29T11:23:32.454Z,25.63
2023-01-29T11:26:39.016Z,26.30
2023-01-29T11:29:44.604Z,26.87
2023-01-29T11:32:52.253Z,26.97
2023-01-29T11:35:57.622Z,24.93
2023-01-29T11:39:13.112Z,24.47
2023-01-29T11:42:21.628Z,23.53
2023-01-29T11:45:29.829Z,23.10
2023-01-29T11:48:43.010Z,23.40
2023-01-29T11:51:53.956Z,22.53
2023-01-29T11:55:00.715Z,22.10
2023-01-29T11:58:07.474Z,23.23
2023-01-29T12:01:11.567Z,22.93
2023-01-29T12:04:19.670Z,21.97
2023-01-29T12:07:23.970Z,23.10
2023-01-29T12:10:36.419Z,20.93
2023-01-29T12:13:40.782Z,22.77
2023-01-29T12:16:52.926Z,22.63
2023-01-29T12:20:00.112Z,20.70
2023-01-29T12:23:12.279Z,22.57
2023-01-29T12:26:17.831Z,21.30
2023-01-29T12:29:32.263Z,21.43
2023-01-29T12:32:42.032Z,21.37
2023-01-29T12:35:48.819Z,23.37
2023-01-29T12:38:53.005Z,23.50
2023-01-29T12:42:00.586Z,29.17
2023-01-29T12:45:08.922Z,24.13
2023-01-29T12:48:15.360Z,24.67
2023-01-29T12:51:21.184Z,26.63
2023-01-29T12:54:33.362Z,26.37
2023-01-29T12:57:42.570Z,21.83
2023-01-29T13:00:47.472Z,21.10
2023-01-29T13:03:54.553Z,20.77
2023-01-29T13:07:06.076Z,22.37
2023-01-29T13:10:15.067Z,22.17
2023-01-29T13:13:25.896Z,23.23
2023-01-29T13:16:34.421Z,22.57
2023-01-29T13:19:41.874Z,21.73
2023-01-29T13:22:45.143Z,18.90
2023-01-29T13:25:51.552Z,20.57
2023-01-29T13:28:54.629Z,21.27
2023-01-29T13:32:00.670Z,19.83
2023-01-29T13:35:07.353Z,20.13
2023-01-29T13:38:25.811Z,29.70
2023-01-29T13:41:39.836Z,30.90
2023-01-29T13:44:42.734Z,22.37
2023-01-29T13:47:46.239Z,19.90
2023-01-29T13:50:49.450Z,19.80
2023-01-29T13:53:58.275Z,19.63
2023-01-29T13:57:02.882Z,19.77
2023-01-29T14:00:06.483Z,20.50
2023-01-29T14:04:04.240Z,20.10
2023-01-29T14:07:49.762Z,20.20
2023-01-29T14:11:35.703Z,20.27
2023-01-29T14:15:22.720Z,18.47
2023-01-29T14:18:27.185Z,21.20
2023-01-29T14:21:31.741Z,20.97
2023-01-29T14:24:35.732Z,21.40
2023-01-29T14:27:38.590Z,20.33
2023-01-29T14:30:46.593Z,21.70
2023-01-29T14:33:49.882Z,21.30
2023-01-29T14:36:56.238Z,21.70
2023-01-29T14:40:08.955Z,21.47
2023-01-29T14:43:19.930Z,21.30
2023-01-29T14:46:45.290Z,21.23
2023-01-29T14:49:55.568Z,20.90
2023-01-29T14:53:02.788Z,20.30
2023-01-29T14:56:15.194Z,20.00
2023-01-29T14:59:21.791Z,20.03
2023-01-29T15:02:33.163Z,20.57
2023-01-29T15:05:38.874Z,19.20
2023-01-29T15:08:46.610Z,20.90
2023-01-29T15:11:57.935Z,22.17
2023-01-29T15:15:08.858Z,21.83
2023-01-29T15:18:16.701Z,21.30
2023-01-29T15:21:20.674Z,21.83
2023-01-29T15:24:23.260Z,21.93
2023-01-29T15:27:27.180Z,21.40
2023-01-29T15:30:34.027Z,22.13
2023-01-29T15:33:38.507Z,23.30
2023-01-29T15:36:41.262Z,23.83
2023-01-29T15:39:45.036Z,21.30
2023-01-29T15:42:49.243Z,25.00
2023-01-29T15:45:53.166Z,22.50
2023-01-29T15:48:58.097Z,25.23
2023-01-29T15:52:04.409Z,23.77
2023-01-29T15:55:08.722Z,24.10
2023-01-29T15:58:18.281Z,23.07
2023-01-29T16:01:21.547Z,24.50
2023-01-29T16:04:28.789Z,23.50
2023-01-29T16:07:32.490Z,23.43
2023-01-29T16:10:35.302Z,24.27
2023-01-29T16:13:44.096Z,22.50
2023-01-29T16:16:48.501Z,23.70
2023-01-29T16:19:56.934Z,24.67
2023-01-29T16:23:00.617Z,23.90
2023-01-29T16:26:06.601Z,23.93
2023-01-29T16:29:12.905Z,24.97
2023-01-29T16:32:16.703Z,24.27
2023-01-29T16:35:19.893Z,23.33
2023-01-29T16:38:30.517Z,24.60
2023-01-29T16:41:35.834Z,27.57
2023-01-29T16:44:40.893Z,23.53
2023-01-29T16:47:43.635Z,23.50
2023-01-29T16:50:54.913Z,22.67
2023-01-29T16:54:09.179Z,22.30
2023-01-29T16:57:17.123Z,22.30
2023-01-29T17:00:25.347Z,22.07
2023-01-29T17:03:31.249Z,22.33
2023-01-29T17:06:35.001Z,22.37
2023-01-29T17:09:38.804Z,23.33
2023-01-29T17:12:41.477Z,22.10
2023-01-29T17:15:48.427Z,23.00
2023-01-29T17:18:51.114Z,21.13
2023-01-29T17:21:54.013Z,20.93
2023-01-29T17:24:56.603Z,19.37
2023-01-29T17:28:02.152Z,20.10
2023-01-29T17:31:07.446Z,21.37
2023-01-29T17:34:12.690Z,17.90
2023-01-29T17:37:16.343Z,19.23
2023-01-29T17:40:34.580Z,20.10
2023-01-29T17:43:37.174Z,20.60
2023-01-29T17:46:41.112Z,19.07
2023-01-29T17:49:44.019Z,20.67
2023-01-29T17:52:46.654Z,17.40
2023-01-29T17:55:49.627Z,20.10
2023-01-29T17:58:52.192Z,21.83
2023-01-29T18:01:56.587Z,21.83
2023-01-29T18:04:59.188Z,21.73
2023-01-29T18:08:02.240Z,22.17
2023-01-29T18:11:05.128Z,20.13
2023-01-29T18:14:13.583Z,20.87
2023-01-29T18:17:22.221Z,30.10
2023-01-29T18:20:26.399Z,24.30
2023-01-29T18:23:31.094Z,20.73
2023-01-29T18:26:33.877Z,20.50
2023-01-29T18:29:36.707Z,21.40
2023-01-29T18:32:40.698Z,19.80
2023-01-29T18:35:44.549Z,18.70
2023-01-29T18:38:47.135Z,22.20
2023-01-29T18:41:49.708Z,21.90
2023-01-29T18:44:52.306Z,20.40
2023-01-29T18:47:56.395Z,20.20
2023-01-29T18:50:59.499Z,20.70
2023-01-29T18:54:02.080Z,20.07
2023-01-29T18:57:13.004Z,22.13
2023-01-29T19:00:18.298Z,22.03
2023-01-29T19:03:23.097Z,22.20
2023-01-29T19:06:25.699Z,21.57
2023-01-29T19:09:28.488Z,20.80
2023-01-29T19:12:31.119Z,24.03
2023-01-29T19:15:33.838Z,22.43
2023-01-29T19:18:38.649Z,25.43
2023-01-29T19:21:41.232Z,24.90
2023-01-29T19:24:43.828Z,26.23
2023-01-29T19:27:46.563Z,25.97
2023-01-29T19:30:49.206Z,26.37
2023-01-29T19:33:53.163Z,28.73
2023-01-29T19:36:55.758Z,27.23
2023-01-29T19:39:58.380Z,28.90
2023-01-29T19:43:00.985Z,27.73
2023-01-29T19:46:03.547Z,28.63
2023-01-29T19:49:07.771Z,27.63
2023-01-29T19:52:14.784Z,31.83
2023-01-29T19:55:17.860Z,29.87
2023-01-29T19:58:20.763Z,26.80
2023-01-29T20:01:24.598Z,30.93
2023-01-29T20:04:29.154Z,38.30
2023-01-29T20:07:31.737Z,32.50
2023-01-29T20:10:34.367Z,36.40
2023-01-29T20:13:36.987Z,36.07
2023-01-29T20:16:39.673Z,30.67
2023-01-29T20:19:43.954Z,32.33
2023-01-29T20:22:46.832Z,34.63
2023-01-29T20:25:49.533Z,32.27
2023-01-29T20:28:52.155Z,34.30
2023-01-29T20:31:54.732Z,33.67
2023-01-29T20:34:58.666Z,34.00
2023-01-29T20:38:01.663Z,33.53
2023-01-29T20:41:05.605Z,33.57
2023-01-29T20:44:08.653Z,32.00
2023-01-29T20:47:11.871Z,31.90
2023-01-29T20:50:18.782Z,31.50
2023-01-29T20:53:21.827Z,32.67
2023-01-29T20:56:36.836Z,33.13
2023-01-29T20:59:45.141Z,33.93
2023-01-29T21:02:47.721Z,32.00
2023-01-29T21:05:52.157Z,27.13
2023-01-29T21:08:54.748Z,25.80
2023-01-29T21:11:57.400Z,31.20
2023-01-29T21:14:59.992Z,33.57
2023-01-29T21:18:04.439Z,35.40
2023-01-29T21:21:08.430Z,40.67
2023-01-29T21:24:12.856Z,34.47
2023-01-29T21:27:15.482Z,32.33
2023-01-29T21:30:19.339Z,33.73
2023-01-29T21:33:22.888Z,33.90
2023-01-29T21:36:26.888Z,38.73
2023-01-29T21:39:29.466Z,33.43
2023-01-29T21:42:49.413Z,30.47
2023-01-29T21:45:56.772Z,31.37
2023-01-29T21:48:59.459Z,31.70
2023-01-29T21:52:03.387Z,31.07
2023-01-29T21:55:06.817Z,33.10
2023-01-29T21:58:09.424Z,32.67
2023-01-29T22:01:35.845Z,31.57
2023-01-29T22:04:35.388Z,31.67
2023-01-29T22:07:39.574Z,30.53
2023-01-29T22:10:42.776Z,31.73
2023-01-29T22:13:45.525Z,29.77
2023-01-29T22:16:48.241Z,29.03
2023-01-29T22:19:50.859Z,32.63
2023-01-29T22:22:54.788Z,30.20
2023-01-29T22:26:03.214Z,28.20
2023-01-29T22:29:05.845Z,30.13
2023-01-29T22:32:09.458Z,28.77
2023-01-29T22:35:12.039Z,30.10
2023-01-29T22:38:15.973Z,28.70
2023-01-29T22:41:18.569Z,30.23
2023-01-29T22:44:21.157Z,31.53
2023-01-29T22:47:23.773Z,31.03
2023-01-29T22:50:26.387Z,31.43
2023-01-29T22:53:30.349Z,29.40
2023-01-29T22:56:32.911Z,29.90
2023-01-29T22:59:35.516Z,31.20
2023-01-29T23:02:38.468Z,28.67
2023-01-29T23:05:41.029Z,27.57
2023-01-29T23:08:45.335Z,27.97
2023-01-29T23:11:47.953Z,26.93
2023-01-29T23:14:50.526Z,26.47
2023-01-29T23:17:53.141Z,26.77
2023-01-29T23:20:57.794Z,25.67
2023-01-29T23:24:01.774Z,25.40
2023-01-29T23:27:16.345Z,25.30
2023-01-29T23:30:19.520Z,26.50
2023-01-29T23:33:22.402Z,26.67
2023-01-29T23:36:24.998Z,24.60
2023-01-29T23:39:28.929Z,26.10
2023-01-29T23:42:31.505Z,25.17
2023-01-29T23:45:34.093Z,25.70
2023-01-29T23:48:36.736Z,25.37
2023-01-29T23:51:39.453Z,25.13
2023-01-29T23:54:43.412Z,24.47
2023-01-29T23:57:46.043Z,25.97
